Annapolis, Illinois
Current Conditions -  °F | °C
As of 7:35 PM on Wednesday 26 Nov 2014 (Local Time) from KRSV Reporting Station
Overcast Overcast  
Wind Chill: -3°   Ceiling: 2900
Heat Index:   Visibility: 7mi
Dew Point: -1°   Wind: 5mph
Humidity: 96%   Direction: 320°NW
Pressure: 30.09"   Gusts: NA
Location:  39.14°N, 87.82°W
Report Text: KRSV 270135Z AUTO 32004KT 7SM BKN029 OVC039 00/M01 A3009 RMK AO2 T00001006
Loading
Personal Weather Stations






























Interactive Weather Map New forecast layout! Learn more

10-Day Weather Forecast

Advertisements
Track Severe Weather on mobile